sensor_id;sensor_type;location;lat;lon;timestamp;temperature;humidity
71237;DHT22;58984;51.960;5.582;2023-09-07T00:01:56;27.60;56.10
71237;DHT22;58984;51.960;5.582;2023-09-07T00:04:22;27.60;56.10
71237;DHT22;58984;51.960;5.582;2023-09-07T00:06:48;27.60;56.10
71237;DHT22;58984;51.960;5.582;2023-09-07T00:09:15;27.50;56.10
71237;DHT22;58984;51.960;5.582;2023-09-07T00:11:41;27.50;56.10
71237;DHT22;58984;51.960;5.582;2023-09-07T00:14:07;27.50;56.10
71237;DHT22;58984;51.960;5.582;2023-09-07T00:16:33;27.50;56.10
71237;DHT22;58984;51.960;5.582;2023-09-07T00:19:04;27.50;56.10
71237;DHT22;58984;51.960;5.582;2023-09-07T00:21:30;27.50;56.10
71237;DHT22;58984;51.960;5.582;2023-09-07T00:23:55;27.50;56.00
71237;DHT22;58984;51.960;5.582;2023-09-07T00:26:21;27.50;56.10
71237;DHT22;58984;51.960;5.582;2023-09-07T00:28:47;27.50;56.10
71237;DHT22;58984;51.960;5.582;2023-09-07T00:31:13;27.40;56.00
71237;DHT22;58984;51.960;5.582;2023-09-07T00:33:39;27.40;56.20
71237;DHT22;58984;51.960;5.582;2023-09-07T00:36:05;27.40;56.10
71237;DHT22;58984;51.960;5.582;2023-09-07T00:38:31;27.40;56.20
71237;DHT22;58984;51.960;5.582;2023-09-07T00:40:56;27.40;56.10
71237;DHT22;58984;51.960;5.582;2023-09-07T00:43:22;27.40;56.20
71237;DHT22;58984;51.960;5.582;2023-09-07T00:45:48;27.40;56.20
71237;DHT22;58984;51.960;5.582;2023-09-07T00:48:15;27.40;56.10
71237;DHT22;58984;51.960;5.582;2023-09-07T00:50:42;27.40;56.20
71237;DHT22;58984;51.960;5.582;2023-09-07T00:53:11;27.40;56.30
71237;DHT22;58984;51.960;5.582;2023-09-07T00:55:37;27.30;56.10
71237;DHT22;58984;51.960;5.582;2023-09-07T00:58:04;27.30;56.10
71237;DHT22;58984;51.960;5.582;2023-09-07T01:00:30;27.30;56.20
71237;DHT22;58984;51.960;5.582;2023-09-07T01:02:56;27.30;56.30
71237;DHT22;58984;51.960;5.582;2023-09-07T01:05:27;27.20;56.20
71237;DHT22;58984;51.960;5.582;2023-09-07T01:08:00;27.30;56.30
71237;DHT22;58984;51.960;5.582;2023-09-07T01:10:29;27.20;56.30
71237;DHT22;58984;51.960;5.582;2023-09-07T01:12:54;27.30;56.30
71237;DHT22;58984;51.960;5.582;2023-09-07T01:15:20;27.20;56.20
71237;DHT22;58984;51.960;5.582;2023-09-07T01:17:46;27.20;56.20
71237;DHT22;58984;51.960;5.582;2023-09-07T01:20:12;27.20;56.30
71237;DHT22;58984;51.960;5.582;2023-09-07T01:22:39;27.10;56.30
71237;DHT22;58984;51.960;5.582;2023-09-07T01:25:06;27.20;56.40
71237;DHT22;58984;51.960;5.582;2023-09-07T01:27:33;27.20;56.40
71237;DHT22;58984;51.960;5.582;2023-09-07T01:29:58;27.10;56.20
71237;DHT22;58984;51.960;5.582;2023-09-07T01:32:24;27.20;56.30
71237;DHT22;58984;51.960;5.582;2023-09-07T01:34:57;27.20;56.40
71237;DHT22;58984;51.960;5.582;2023-09-07T01:37:23;27.10;56.40
71237;DHT22;58984;51.960;5.582;2023-09-07T01:39:48;27.10;56.30
71237;DHT22;58984;51.960;5.582;2023-09-07T01:42:14;27.10;56.40
71237;DHT22;58984;51.960;5.582;2023-09-07T01:44:40;27.10;56.40
71237;DHT22;58984;51.960;5.582;2023-09-07T01:47:06;27.00;56.20
71237;DHT22;58984;51.960;5.582;2023-09-07T01:49:31;27.10;56.40
71237;DHT22;58984;51.960;5.582;2023-09-07T01:51:57;27.10;56.30
71237;DHT22;58984;51.960;5.582;2023-09-07T01:54:23;27.00;56.30
71237;DHT22;58984;51.960;5.582;2023-09-07T01:56:48;27.00;56.30
71237;DHT22;58984;51.960;5.582;2023-09-07T01:59:14;27.00;56.30
71237;DHT22;58984;51.960;5.582;2023-09-07T02:01:39;27.00;56.30
71237;DHT22;58984;51.960;5.582;2023-09-07T02:04:07;27.00;56.30
71237;DHT22;58984;51.960;5.582;2023-09-07T02:06:32;27.00;56.30
71237;DHT22;58984;51.960;5.582;2023-09-07T02:09:01;26.90;56.20
71237;DHT22;58984;51.960;5.582;2023-09-07T02:11:27;26.90;56.40
71237;DHT22;58984;51.960;5.582;2023-09-07T02:13:53;26.90;56.40
71237;DHT22;58984;51.960;5.582;2023-09-07T02:16:18;26.90;56.40
71237;DHT22;58984;51.960;5.582;2023-09-07T02:18:44;26.90;56.20
71237;DHT22;58984;51.960;5.582;2023-09-07T02:21:11;26.90;56.40
71237;DHT22;58984;51.960;5.582;2023-09-07T02:23:37;26.90;56.40
71237;DHT22;58984;51.960;5.582;2023-09-07T02:26:03;26.90;56.40
71237;DHT22;58984;51.960;5.582;2023-09-07T02:28:29;26.80;56.40
71237;DHT22;58984;51.960;5.582;2023-09-07T02:31:02;26.80;56.40
71237;DHT22;58984;51.960;5.582;2023-09-07T02:33:28;26.70;56.40
71237;DHT22;58984;51.960;5.582;2023-09-07T02:35:53;26.80;56.40
71237;DHT22;58984;51.960;5.582;2023-09-07T02:38:19;26.80;56.40
71237;DHT22;58984;51.960;5.582;2023-09-07T02:40:45;26.80;56.40
71237;DHT22;58984;51.960;5.582;2023-09-07T02:43:11;26.80;56.50
71237;DHT22;58984;51.960;5.582;2023-09-07T02:45:38;26.80;56.40
71237;DHT22;58984;51.960;5.582;2023-09-07T02:48:04;26.70;56.40
71237;DHT22;58984;51.960;5.582;2023-09-07T02:50:32;26.70;56.50
71237;DHT22;58984;51.960;5.582;2023-09-07T02:52:59;26.70;56.50
71237;DHT22;58984;51.960;5.582;2023-09-07T02:55:28;26.70;57.10
71237;DHT22;58984;51.960;5.582;2023-09-07T02:57:54;26.70;56.50
71237;DHT22;58984;51.960;5.582;2023-09-07T03:00:20;26.70;56.40
71237;DHT22;58984;51.960;5.582;2023-09-07T03:02:46;26.70;56.40
71237;DHT22;58984;51.960;5.582;2023-09-07T03:05:16;26.70;56.40
71237;DHT22;58984;51.960;5.582;2023-09-07T03:07:46;26.70;56.50
71237;DHT22;58984;51.960;5.582;2023-09-07T03:10:12;26.60;56.50
71237;DHT22;58984;51.960;5.582;2023-09-07T03:12:38;26.60;56.40
71237;DHT22;58984;51.960;5.582;2023-09-07T03:15:07;26.70;56.50
71237;DHT22;58984;51.960;5.582;2023-09-07T03:17:33;26.60;56.40
71237;DHT22;58984;51.960;5.582;2023-09-07T03:19:59;26.60;56.40
71237;DHT22;58984;51.960;5.582;2023-09-07T03:22:24;26.60;56.40
71237;DHT22;58984;51.960;5.582;2023-09-07T03:24:51;26.60;56.30
71237;DHT22;58984;51.960;5.582;2023-09-07T03:27:17;26.60;56.50
71237;DHT22;58984;51.960;5.582;2023-09-07T03:29:44;26.50;56.50
71237;DHT22;58984;51.960;5.582;2023-09-07T03:32:09;26.50;56.50
71237;DHT22;58984;51.960;5.582;2023-09-07T03:34:38;26.60;56.60
71237;DHT22;58984;51.960;5.582;2023-09-07T03:37:04;26.50;56.50
71237;DHT22;58984;51.960;5.582;2023-09-07T03:39:32;26.50;56.60
71237;DHT22;58984;51.960;5.582;2023-09-07T03:41:57;26.50;56.60
71237;DHT22;58984;51.960;5.582;2023-09-07T03:44:23;26.50;56.60
71237;DHT22;58984;51.960;5.582;2023-09-07T03:46:50;26.50;56.60
71237;DHT22;58984;51.960;5.582;2023-09-07T03:49:16;26.50;56.60
71237;DHT22;58984;51.960;5.582;2023-09-07T03:51:44;26.40;56.50
71237;DHT22;58984;51.960;5.582;2023-09-07T03:54:10;26.40;56.40
71237;DHT22;58984;51.960;5.582;2023-09-07T03:56:36;26.50;56.60
71237;DHT22;58984;51.960;5.582;2023-09-07T03:59:01;26.50;56.60
71237;DHT22;58984;51.960;5.582;2023-09-07T04:01:27;26.40;56.50
71237;DHT22;58984;51.960;5.582;2023-09-07T04:03:52;26.40;56.60
71237;DHT22;58984;51.960;5.582;2023-09-07T04:06:21;26.40;56.50
71237;DHT22;58984;51.960;5.582;2023-09-07T04:08:49;26.40;56.50
71237;DHT22;58984;51.960;5.582;2023-09-07T04:11:15;26.40;56.50
71237;DHT22;58984;51.960;5.582;2023-09-07T04:13:41;26.40;56.50
71237;DHT22;58984;51.960;5.582;2023-09-07T04:16:08;26.40;56.50
71237;DHT22;58984;51.960;5.582;2023-09-07T04:18:34;26.30;56.40
71237;DHT22;58984;51.960;5.582;2023-09-07T04:21:06;26.40;56.50
71237;DHT22;58984;51.960;5.582;2023-09-07T04:23:33;26.30;56.60
71237;DHT22;58984;51.960;5.582;2023-09-07T04:26:07;26.30;56.50
71237;DHT22;58984;51.960;5.582;2023-09-07T04:28:33;26.30;56.60
71237;DHT22;58984;51.960;5.582;2023-09-07T04:30:59;26.30;56.40
71237;DHT22;58984;51.960;5.582;2023-09-07T04:33:25;26.30;56.40
71237;DHT22;58984;51.960;5.582;2023-09-07T04:35:53;26.30;56.50
71237;DHT22;58984;51.960;5.582;2023-09-07T04:38:18;26.30;56.40
71237;DHT22;58984;51.960;5.582;2023-09-07T04:40:47;26.30;56.40
71237;DHT22;58984;51.960;5.582;2023-09-07T04:43:12;26.20;56.50
71237;DHT22;58984;51.960;5.582;2023-09-07T04:45:46;26.20;56.40
71237;DHT22;58984;51.960;5.582;2023-09-07T04:48:12;26.20;56.50
71237;DHT22;58984;51.960;5.582;2023-09-07T04:50:37;26.20;56.30
71237;DHT22;58984;51.960;5.582;2023-09-07T04:53:03;26.20;56.40
71237;DHT22;58984;51.960;5.582;2023-09-07T04:55:29;26.20;56.40
71237;DHT22;58984;51.960;5.582;2023-09-07T04:57:54;26.20;56.40
71237;DHT22;58984;51.960;5.582;2023-09-07T05:00:23;26.20;56.40
71237;DHT22;58984;51.960;5.582;2023-09-07T05:02:49;26.20;56.40
71237;DHT22;58984;51.960;5.582;2023-09-07T05:05:14;26.10;56.40
71237;DHT22;58984;51.960;5.582;2023-09-07T05:07:40;26.10;56.30
71237;DHT22;58984;51.960;5.582;2023-09-07T05:10:06;26.10;56.30
71237;DHT22;58984;51.960;5.582;2023-09-07T05:12:33;26.10;56.60
71237;DHT22;58984;51.960;5.582;2023-09-07T05:14:59;26.10;56.60
71237;DHT22;58984;51.960;5.582;2023-09-07T05:17:25;26.10;56.60
71237;DHT22;58984;51.960;5.582;2023-09-07T05:19:51;26.10;56.50
71237;DHT22;58984;51.960;5.582;2023-09-07T05:22:17;26.10;56.60
71237;DHT22;58984;51.960;5.582;2023-09-07T05:24:42;26.00;56.50
71237;DHT22;58984;51.960;5.582;2023-09-07T05:27:10;26.00;56.60
71237;DHT22;58984;51.960;5.582;2023-09-07T05:29:36;26.00;56.50
71237;DHT22;58984;51.960;5.582;2023-09-07T05:32:01;26.00;56.50
71237;DHT22;58984;51.960;5.582;2023-09-07T05:34:27;26.00;56.60
71237;DHT22;58984;51.960;5.582;2023-09-07T05:36:53;26.00;56.60
71237;DHT22;58984;51.960;5.582;2023-09-07T05:39:18;26.00;56.60
71237;DHT22;58984;51.960;5.582;2023-09-07T05:41:44;26.00;56.70
71237;DHT22;58984;51.960;5.582;2023-09-07T05:44:09;26.00;56.70
71237;DHT22;58984;51.960;5.582;2023-09-07T05:46:35;25.90;56.70
71237;DHT22;58984;51.960;5.582;2023-09-07T05:49:01;26.00;56.60
71237;DHT22;58984;51.960;5.582;2023-09-07T05:51:27;25.90;56.60
71237;DHT22;58984;51.960;5.582;2023-09-07T05:53:55;25.90;56.70
71237;DHT22;58984;51.960;5.582;2023-09-07T05:56:21;25.90;56.60
71237;DHT22;58984;51.960;5.582;2023-09-07T05:58:46;25.90;56.70
71237;DHT22;58984;51.960;5.582;2023-09-07T06:01:12;25.90;56.70
71237;DHT22;58984;51.960;5.582;2023-09-07T06:03:38;25.90;56.70
71237;DHT22;58984;51.960;5.582;2023-09-07T06:06:04;25.80;56.60
71237;DHT22;58984;51.960;5.582;2023-09-07T06:08:30;25.90;56.70
71237;DHT22;58984;51.960;5.582;2023-09-07T06:10:56;25.90;56.70
71237;DHT22;58984;51.960;5.582;2023-09-07T06:13:21;25.80;56.80
71237;DHT22;58984;51.960;5.582;2023-09-07T06:15:47;25.80;56.80
71237;DHT22;58984;51.960;5.582;2023-09-07T06:18:12;25.80;56.80
71237;DHT22;58984;51.960;5.582;2023-09-07T06:20:38;25.80;56.80
71237;DHT22;58984;51.960;5.582;2023-09-07T06:23:03;25.80;56.90
71237;DHT22;58984;51.960;5.582;2023-09-07T06:25:29;25.80;56.90
71237;DHT22;58984;51.960;5.582;2023-09-07T06:27:55;25.80;57.00
71237;DHT22;58984;51.960;5.582;2023-09-07T06:30:20;25.80;57.00
71237;DHT22;58984;51.960;5.582;2023-09-07T06:32:46;25.80;57.00
71237;DHT22;58984;51.960;5.582;2023-09-07T06:35:14;25.80;57.00
71237;DHT22;58984;51.960;5.582;2023-09-07T06:37:39;25.80;56.90
71237;DHT22;58984;51.960;5.582;2023-09-07T06:40:08;25.70;57.00
71237;DHT22;58984;51.960;5.582;2023-09-07T06:42:34;25.70;56.90
71237;DHT22;58984;51.960;5.582;2023-09-07T06:45:00;25.70;57.00
71237;DHT22;58984;51.960;5.582;2023-09-07T06:47:25;25.70;57.00
71237;DHT22;58984;51.960;5.582;2023-09-07T06:49:51;25.70;57.00
71237;DHT22;58984;51.960;5.582;2023-09-07T06:52:16;25.70;57.00
71237;DHT22;58984;51.960;5.582;2023-09-07T06:54:42;25.70;57.00
71237;DHT22;58984;51.960;5.582;2023-09-07T06:57:07;25.70;57.00
71237;DHT22;58984;51.960;5.582;2023-09-07T06:59:34;25.80;57.10
71237;DHT22;58984;51.960;5.582;2023-09-07T07:02:11;25.70;57.00
71237;DHT22;58984;51.960;5.582;2023-09-07T07:04:37;25.60;57.10
71237;DHT22;58984;51.960;5.582;2023-09-07T07:07:02;25.70;57.00
71237;DHT22;58984;51.960;5.582;2023-09-07T07:09:31;25.70;57.10
71237;DHT22;58984;51.960;5.582;2023-09-07T07:11:59;25.70;57.00
71237;DHT22;58984;51.960;5.582;2023-09-07T07:14:24;25.70;57.10
71237;DHT22;58984;51.960;5.582;2023-09-07T07:16:50;25.70;57.20
71237;DHT22;58984;51.960;5.582;2023-09-07T07:19:15;25.70;57.20
71237;DHT22;58984;51.960;5.582;2023-09-07T07:21:41;25.60;57.20
71237;DHT22;58984;51.960;5.582;2023-09-07T07:24:07;25.60;57.20
71237;DHT22;58984;51.960;5.582;2023-09-07T07:26:33;25.60;57.20
71237;DHT22;58984;51.960;5.582;2023-09-07T07:28:58;25.60;57.20
71237;DHT22;58984;51.960;5.582;2023-09-07T07:31:24;25.70;57.40
71237;DHT22;58984;51.960;5.582;2023-09-07T07:33:50;25.70;57.50
71237;DHT22;58984;51.960;5.582;2023-09-07T07:36:15;25.60;57.50
71237;DHT22;58984;51.960;5.582;2023-09-07T07:38:41;25.70;57.50
71237;DHT22;58984;51.960;5.582;2023-09-07T07:41:07;25.60;57.50
71237;DHT22;58984;51.960;5.582;2023-09-07T07:43:33;25.70;57.60
71237;DHT22;58984;51.960;5.582;2023-09-07T07:45:59;25.70;57.70
71237;DHT22;58984;51.960;5.582;2023-09-07T07:48:24;25.70;57.70
71237;DHT22;58984;51.960;5.582;2023-09-07T07:50:50;25.70;57.70
71237;DHT22;58984;51.960;5.582;2023-09-07T07:53:16;25.70;57.70
71237;DHT22;58984;51.960;5.582;2023-09-07T07:55:42;25.70;57.60
71237;DHT22;58984;51.960;5.582;2023-09-07T07:58:10;25.70;57.60
71237;DHT22;58984;51.960;5.582;2023-09-07T08:00:36;25.70;57.60
71237;DHT22;58984;51.960;5.582;2023-09-07T08:03:02;25.80;57.80
71237;DHT22;58984;51.960;5.582;2023-09-07T08:05:29;25.80;57.80
71237;DHT22;58984;51.960;5.582;2023-09-07T08:07:56;25.80;57.80
71237;DHT22;58984;51.960;5.582;2023-09-07T08:10:21;25.80;57.80
71237;DHT22;58984;51.960;5.582;2023-09-07T08:12:47;25.90;57.80
71237;DHT22;58984;51.960;5.582;2023-09-07T08:15:13;25.90;57.90
71237;DHT22;58984;51.960;5.582;2023-09-07T08:17:40;26.00;57.90
71237;DHT22;58984;51.960;5.582;2023-09-07T08:20:05;26.00;58.60
71237;DHT22;58984;51.960;5.582;2023-09-07T08:22:33;26.10;58.00
71237;DHT22;58984;51.960;5.582;2023-09-07T08:25:01;26.20;58.00
71237;DHT22;58984;51.960;5.582;2023-09-07T08:27:27;26.20;58.10
71237;DHT22;58984;51.960;5.582;2023-09-07T08:29:53;26.20;58.10
71237;DHT22;58984;51.960;5.582;2023-09-07T08:32:19;26.40;58.20
71237;DHT22;58984;51.960;5.582;2023-09-07T08:34:54;26.40;58.20
71237;DHT22;58984;51.960;5.582;2023-09-07T08:37:22;26.50;58.30
71237;DHT22;58984;51.960;5.582;2023-09-07T08:39:48;26.50;58.20
71237;DHT22;58984;51.960;5.582;2023-09-07T08:42:13;26.60;58.30
71237;DHT22;58984;51.960;5.582;2023-09-07T08:44:42;26.60;58.30
71237;DHT22;58984;51.960;5.582;2023-09-07T08:47:12;26.70;58.40
71237;DHT22;58984;51.960;5.582;2023-09-07T08:49:40;26.80;58.40
71237;DHT22;58984;51.960;5.582;2023-09-07T08:52:06;26.80;58.50
71237;DHT22;58984;51.960;5.582;2023-09-07T08:54:33;26.90;58.50
71237;DHT22;58984;51.960;5.582;2023-09-07T08:57:02;27.00;58.60
71237;DHT22;58984;51.960;5.582;2023-09-07T08:59:29;27.00;58.60
71237;DHT22;58984;51.960;5.582;2023-09-07T09:01:58;27.10;58.60
71237;DHT22;58984;51.960;5.582;2023-09-07T09:04:25;27.20;58.70
71237;DHT22;58984;51.960;5.582;2023-09-07T09:06:53;27.30;58.80
71237;DHT22;58984;51.960;5.582;2023-09-07T09:09:23;27.30;58.80
71237;DHT22;58984;51.960;5.582;2023-09-07T09:11:50;27.40;58.90
71237;DHT22;58984;51.960;5.582;2023-09-07T09:14:19;27.50;58.90
71237;DHT22;58984;51.960;5.582;2023-09-07T09:16:49;27.50;58.90
71237;DHT22;58984;51.960;5.582;2023-09-07T09:19:15;27.60;58.90
71237;DHT22;58984;51.960;5.582;2023-09-07T09:21:41;27.70;59.00
71237;DHT22;58984;51.960;5.582;2023-09-07T09:24:10;27.80;59.10
71237;DHT22;58984;51.960;5.582;2023-09-07T09:26:39;27.80;59.10
71237;DHT22;58984;51.960;5.582;2023-09-07T09:29:05;27.90;59.20
71237;DHT22;58984;51.960;5.582;2023-09-07T09:31:31;28.00;59.20
71237;DHT22;58984;51.960;5.582;2023-09-07T09:33:58;28.10;59.20
71237;DHT22;58984;51.960;5.582;2023-09-07T09:36:23;28.20;59.40
71237;DHT22;58984;51.960;5.582;2023-09-07T09:38:51;28.20;59.30
71237;DHT22;58984;51.960;5.582;2023-09-07T09:41:19;28.30;59.40
71237;DHT22;58984;51.960;5.582;2023-09-07T09:43:46;28.40;59.50
71237;DHT22;58984;51.960;5.582;2023-09-07T09:46:15;28.50;59.50
71237;DHT22;58984;51.960;5.582;2023-09-07T09:48:41;28.60;59.60
71237;DHT22;58984;51.960;5.582;2023-09-07T09:51:07;28.60;59.60
71237;DHT22;58984;51.960;5.582;2023-09-07T09:53:33;28.70;59.30
71237;DHT22;58984;51.960;5.582;2023-09-07T09:55:59;28.80;59.40
71237;DHT22;58984;51.960;5.582;2023-09-07T09:58:24;28.80;59.40
71237;DHT22;58984;51.960;5.582;2023-09-07T10:00:53;29.00;59.60
71237;DHT22;58984;51.960;5.582;2023-09-07T10:03:24;29.00;59.60
71237;DHT22;58984;51.960;5.582;2023-09-07T10:05:52;29.10;59.60
71237;DHT22;58984;51.960;5.582;2023-09-07T10:08:19;29.20;59.60
71237;DHT22;58984;51.960;5.582;2023-09-07T10:10:50;29.20;59.60
71237;DHT22;58984;51.960;5.582;2023-09-07T10:13:29;29.30;59.60
71237;DHT22;58984;51.960;5.582;2023-09-07T10:18:34;29.40;59.60
71237;DHT22;58984;51.960;5.582;2023-09-07T10:21:00;29.60;59.70
71237;DHT22;58984;51.960;5.582;2023-09-07T10:23:38;29.60;59.50
71237;DHT22;58984;51.960;5.582;2023-09-07T10:26:09;29.60;59.70
71237;DHT22;58984;51.960;5.582;2023-09-07T10:28:35;29.70;59.50
71237;DHT22;58984;51.960;5.582;2023-09-07T10:31:14;29.80;59.50
71237;DHT22;58984;51.960;5.582;2023-09-07T10:33:40;29.80;59.70
71237;DHT22;58984;51.960;5.582;2023-09-07T10:36:06;30.00;59.60
71237;DHT22;58984;51.960;5.582;2023-09-07T10:38:32;30.00;59.50
71237;DHT22;58984;51.960;5.582;2023-09-07T10:41:00;30.10;59.60
71237;DHT22;58984;51.960;5.582;2023-09-07T10:43:29;30.20;59.60
71237;DHT22;58984;51.960;5.582;2023-09-07T10:45:56;30.20;59.50
71237;DHT22;58984;51.960;5.582;2023-09-07T10:48:26;30.30;59.60
71237;DHT22;58984;51.960;5.582;2023-09-07T10:50:53;30.30;59.50
71237;DHT22;58984;51.960;5.582;2023-09-07T10:53:30;30.40;59.50
71237;DHT22;58984;51.960;5.582;2023-09-07T10:56:03;30.40;59.50
71237;DHT22;58984;51.960;5.582;2023-09-07T10:58:32;30.50;59.30
71237;DHT22;58984;51.960;5.582;2023-09-07T11:00:58;30.60;59.30
71237;DHT22;58984;51.960;5.582;2023-09-07T11:03:26;30.60;59.00
71237;DHT22;58984;51.960;5.582;2023-09-07T11:05:54;30.60;59.10
71237;DHT22;58984;51.960;5.582;2023-09-07T11:08:21;30.70;59.20
71237;DHT22;58984;51.960;5.582;2023-09-07T11:10:47;30.70;59.20
71237;DHT22;58984;51.960;5.582;2023-09-07T11:13:12;30.80;59.10
71237;DHT22;58984;51.960;5.582;2023-09-07T11:15:38;30.90;59.10
71237;DHT22;58984;51.960;5.582;2023-09-07T11:18:08;30.90;59.10
71237;DHT22;58984;51.960;5.582;2023-09-07T11:20:37;30.90;59.10
71237;DHT22;58984;51.960;5.582;2023-09-07T11:23:06;30.90;58.90
71237;DHT22;58984;51.960;5.582;2023-09-07T11:25:36;31.10;58.80
71237;DHT22;58984;51.960;5.582;2023-09-07T11:28:03;31.10;58.80
71237;DHT22;58984;51.960;5.582;2023-09-07T11:30:29;31.10;58.90
71237;DHT22;58984;51.960;5.582;2023-09-07T11:35:27;31.10;59.10
71237;DHT22;58984;51.960;5.582;2023-09-07T11:37:53;31.20;59.00
71237;DHT22;58984;51.960;5.582;2023-09-07T11:40:19;31.20;59.00
71237;DHT22;58984;51.960;5.582;2023-09-07T11:42:44;31.30;59.10
71237;DHT22;58984;51.960;5.582;2023-09-07T11:45:10;31.30;59.10
71237;DHT22;58984;51.960;5.582;2023-09-07T11:47:36;31.30;59.00
71237;DHT22;58984;51.960;5.582;2023-09-07T11:50:03;31.40;59.00
71237;DHT22;58984;51.960;5.582;2023-09-07T11:52:28;31.40;58.90
71237;DHT22;58984;51.960;5.582;2023-09-07T11:54:54;31.40;58.90
71237;DHT22;58984;51.960;5.582;2023-09-07T11:57:19;31.40;58.80
71237;DHT22;58984;51.960;5.582;2023-09-07T11:59:45;31.50;59.00
71237;DHT22;58984;51.960;5.582;2023-09-07T12:02:11;31.40;58.80
71237;DHT22;58984;51.960;5.582;2023-09-07T12:04:40;31.50;58.80
71237;DHT22;58984;51.960;5.582;2023-09-07T12:07:05;31.50;58.70
71237;DHT22;58984;51.960;5.582;2023-09-07T12:09:31;31.50;58.80
71237;DHT22;58984;51.960;5.582;2023-09-07T12:11:56;31.50;58.70
71237;DHT22;58984;51.960;5.582;2023-09-07T12:14:22;31.60;58.70
71237;DHT22;58984;51.960;5.582;2023-09-07T12:16:48;31.60;58.60
71237;DHT22;58984;51.960;5.582;2023-09-07T12:19:13;31.60;58.60
71237;DHT22;58984;51.960;5.582;2023-09-07T12:21:39;31.60;58.60
71237;DHT22;58984;51.960;5.582;2023-09-07T12:24:05;31.60;58.60
71237;DHT22;58984;51.960;5.582;2023-09-07T12:26:31;31.60;58.50
71237;DHT22;58984;51.960;5.582;2023-09-07T12:28:56;31.60;58.50
71237;DHT22;58984;51.960;5.582;2023-09-07T12:31:22;31.60;58.60
71237;DHT22;58984;51.960;5.582;2023-09-07T12:33:47;31.70;58.50
71237;DHT22;58984;51.960;5.582;2023-09-07T12:36:13;31.60;58.30
71237;DHT22;58984;51.960;5.582;2023-09-07T12:38:38;31.70;58.40
71237;DHT22;58984;51.960;5.582;2023-09-07T12:41:04;31.70;58.50
71237;DHT22;58984;51.960;5.582;2023-09-07T12:43:30;31.70;58.50
71237;DHT22;58984;51.960;5.582;2023-09-07T12:45:55;31.70;58.40
71237;DHT22;58984;51.960;5.582;2023-09-07T12:48:21;31.70;58.40
71237;DHT22;58984;51.960;5.582;2023-09-07T12:50:47;31.70;58.20
71237;DHT22;58984;51.960;5.582;2023-09-07T12:53:12;31.70;58.30
71237;DHT22;58984;51.960;5.582;2023-09-07T12:55:38;31.70;58.20
71237;DHT22;58984;51.960;5.582;2023-09-07T12:58:03;31.70;58.20
71237;DHT22;58984;51.960;5.582;2023-09-07T13:00:29;31.70;58.20
71237;DHT22;58984;51.960;5.582;2023-09-07T13:02:55;31.70;58.20
71237;DHT22;58984;51.960;5.582;2023-09-07T13:05:21;31.70;58.10
71237;DHT22;58984;51.960;5.582;2023-09-07T13:07:47;31.80;58.20
71237;DHT22;58984;51.960;5.582;2023-09-07T13:10:13;31.80;58.20
71237;DHT22;58984;51.960;5.582;2023-09-07T13:12:40;31.80;58.20
71237;DHT22;58984;51.960;5.582;2023-09-07T13:15:06;31.80;58.00
71237;DHT22;58984;51.960;5.582;2023-09-07T13:17:32;31.80;58.00
71237;DHT22;58984;51.960;5.582;2023-09-07T13:19:58;31.80;58.00
71237;DHT22;58984;51.960;5.582;2023-09-07T13:22:23;31.80;58.00
71237;DHT22;58984;51.960;5.582;2023-09-07T13:24:49;31.80;57.90
71237;DHT22;58984;51.960;5.582;2023-09-07T13:27:15;31.80;58.00
71237;DHT22;58984;51.960;5.582;2023-09-07T13:29:41;31.80;58.00
71237;DHT22;58984;51.960;5.582;2023-09-07T13:32:07;31.80;58.00
71237;DHT22;58984;51.960;5.582;2023-09-07T13:34:32;31.80;58.00
71237;DHT22;58984;51.960;5.582;2023-09-07T13:36:58;31.80;58.60
71237;DHT22;58984;51.960;5.582;2023-09-07T13:39:24;31.80;58.00
71237;DHT22;58984;51.960;5.582;2023-09-07T13:41:49;31.80;57.90
71237;DHT22;58984;51.960;5.582;2023-09-07T13:44:15;31.80;57.80
71237;DHT22;58984;51.960;5.582;2023-09-07T13:46:41;31.80;57.80
71237;DHT22;58984;51.960;5.582;2023-09-07T13:49:07;31.80;57.80
71237;DHT22;58984;51.960;5.582;2023-09-07T13:51:35;31.80;57.70
71237;DHT22;58984;51.960;5.582;2023-09-07T13:54:04;31.80;57.60
71237;DHT22;58984;51.960;5.582;2023-09-07T13:56:30;31.80;57.60
71237;DHT22;58984;51.960;5.582;2023-09-07T13:58:56;31.80;57.60
71237;DHT22;58984;51.960;5.582;2023-09-07T14:01:22;31.80;57.70
71237;DHT22;58984;51.960;5.582;2023-09-07T14:03:49;31.80;57.70
71237;DHT22;58984;51.960;5.582;2023-09-07T14:06:17;31.80;57.60
71237;DHT22;58984;51.960;5.582;2023-09-07T14:08:43;31.80;57.70
71237;DHT22;58984;51.960;5.582;2023-09-07T14:11:13;31.80;57.60
71237;DHT22;58984;51.960;5.582;2023-09-07T14:17:07;31.70;53.60
71237;DHT22;58984;51.960;5.582;2023-09-07T14:19:33;31.90;51.50
71237;DHT22;58984;51.960;5.582;2023-09-07T14:21:59;31.90;51.40
71237;DHT22;58984;51.960;5.582;2023-09-07T14:24:25;31.90;52.70
71237;DHT22;58984;51.960;5.582;2023-09-07T14:26:51;31.90;53.40
71237;DHT22;58984;51.960;5.582;2023-09-07T14:29:16;31.90;53.80
71237;DHT22;58984;51.960;5.582;2023-09-07T14:31:42;31.80;54.10
71237;DHT22;58984;51.960;5.582;2023-09-07T14:34:09;31.90;54.10
71237;DHT22;58984;51.960;5.582;2023-09-07T14:36:35;31.80;54.40
71237;DHT22;58984;51.960;5.582;2023-09-07T14:39:00;31.90;54.60
71237;DHT22;58984;51.960;5.582;2023-09-07T14:41:26;31.80;54.80
71237;DHT22;58984;51.960;5.582;2023-09-07T14:43:53;31.80;54.80
71237;DHT22;58984;51.960;5.582;2023-09-07T14:46:18;31.80;54.90
71237;DHT22;58984;51.960;5.582;2023-09-07T14:48:44;31.80;54.90
71237;DHT22;58984;51.960;5.582;2023-09-07T14:51:13;31.70;55.00
71237;DHT22;58984;51.960;5.582;2023-09-07T14:53:38;31.70;55.00
71237;DHT22;58984;51.960;5.582;2023-09-07T14:56:04;31.70;55.10
71237;DHT22;58984;51.960;5.582;2023-09-07T14:58:29;31.70;55.20
71237;DHT22;58984;51.960;5.582;2023-09-07T15:00:55;31.70;55.20
71237;DHT22;58984;51.960;5.582;2023-09-07T15:03:20;31.70;55.20
71237;DHT22;58984;51.960;5.582;2023-09-07T15:05:46;31.70;55.40
71237;DHT22;58984;51.960;5.582;2023-09-07T15:08:11;31.70;55.40
71237;DHT22;58984;51.960;5.582;2023-09-07T15:10:37;31.60;55.30
71237;DHT22;58984;51.960;5.582;2023-09-07T15:13:03;31.60;55.40
71237;DHT22;58984;51.960;5.582;2023-09-07T15:15:30;31.60;55.30
71237;DHT22;58984;51.960;5.582;2023-09-07T15:17:59;31.60;55.40
71237;DHT22;58984;51.960;5.582;2023-09-07T15:20:24;31.60;55.50
71237;DHT22;58984;51.960;5.582;2023-09-07T15:22:50;31.60;55.50
71237;DHT22;58984;51.960;5.582;2023-09-07T15:25:15;31.50;55.40
71237;DHT22;58984;51.960;5.582;2023-09-07T15:27:43;31.50;55.40
71237;DHT22;58984;51.960;5.582;2023-09-07T15:30:10;31.40;56.00
71237;DHT22;58984;51.960;5.582;2023-09-07T15:32:35;31.40;55.50
71237;DHT22;58984;51.960;5.582;2023-09-07T15:35:01;31.40;55.50